Time;durP1;ratioP1;P1;durP2;ratioP2;P2;SDS_P1;SDS_P2;PMS_P1;PMS_P2;Temp;Humidity;BMP_temperature;BMP_pressure;BME280_temperature;BME280_humidity;BME280_pressure;Samples;Min_cycle;Max_cycle;Signal;HPM_P1;HPM_P2
2022/03/07 00:00:09;;;;;;;1.67;0.90;;;22.90;52.60;;;;;;4970014;28;20581;-45
2022/03/07 00:02:51;;;;;;;1.58;0.90;;;22.90;52.60;;;;;;4968228;28;20240;-51
2022/03/07 00:05:26;;;;;;;2.17;1.10;;;22.90;52.50;;;;;;4969433;28;20600;-50
2022/03/07 00:08:01;;;;;;;1.10;0.70;;;22.90;52.50;;;;;;4969879;28;20608;-51
2022/03/07 00:10:36;;;;;;;1.75;0.82;;;22.90;52.50;;;;;;4970847;28;20513;-48
2022/03/07 00:13:08;;;;;;;1.23;0.80;;;22.90;52.40;;;;;;4970563;28;20225;-49
2022/03/07 00:15:38;;;;;;;2.15;1.10;;;23.00;52.50;;;;;;4970347;28;20285;-51
2022/03/07 00:18:11;;;;;;;2.10;1.08;;;23.00;52.40;;;;;;4970878;28;20583;-49
2022/03/07 00:20:41;;;;;;;2.10;0.90;;;23.00;52.40;;;;;;4970518;28;20245;-45
2022/03/07 00:23:15;;;;;;;1.10;0.98;;;23.00;52.30;;;;;;4971357;28;20312;-48
2022/03/07 00:25:45;;;;;;;1.00;0.80;;;23.00;52.30;;;;;;4970648;28;20198;-49
2022/03/07 00:28:18;;;;;;;1.30;1.00;;;23.00;52.30;;;;;;4971019;28;20241;-48
2022/03/07 00:30:48;;;;;;;1.63;0.90;;;23.00;52.40;;;;;;4970969;28;20194;-49
2022/03/07 00:33:21;;;;;;;2.50;1.05;;;23.00;52.40;;;;;;4970971;28;20222;-49
2022/03/07 00:35:51;;;;;;;2.20;1.10;;;23.00;52.50;;;;;;4970157;28;20745;-47
2022/03/07 00:38:22;;;;;;;1.63;0.90;;;23.00;52.50;;;;;;4970510;28;20276;-47
2022/03/07 00:40:53;;;;;;;1.92;0.98;;;23.00;52.50;;;;;;4969982;28;20202;-50
2022/03/07 00:43:25;;;;;;;1.45;0.82;;;23.00;52.50;;;;;;4971005;28;20221;-49
2022/03/07 00:45:56;;;;;;;3.05;1.20;;;23.00;52.50;;;;;;4970846;28;20659;-47
2022/03/07 01:47:25;;;;;;;2.30;1.15;;;23.20;52.50;;;;;;5868817;23;20222;-46
2022/03/07 01:49:56;;;;;;;0.80;0.80;;;23.20;52.50;;;;;;4950323;28;21406;-49
2022/03/07 01:52:26;;;;;;;1.95;1.10;;;23.20;52.50;;;;;;4956200;28;20272;-45
2022/03/07 01:54:57;;;;;;;2.00;1.00;;;23.20;52.40;;;;;;4969386;28;20230;-48
2022/03/07 01:57:29;;;;;;;0.88;0.85;;;23.20;52.40;;;;;;4969555;28;20249;-45
2022/03/07 02:00:00;;;;;;;1.52;0.93;;;23.20;52.40;;;;;;4969593;28;20205;-45
2022/03/07 02:02:32;;;;;;;2.17;1.00;;;23.20;52.50;;;;;;4969209;28;20206;-49
2022/03/07 02:05:03;;;;;;;0.73;0.73;;;23.20;52.50;;;;;;4969090;28;20655;-48
2022/03/07 02:07:33;;;;;;;1.45;0.82;;;23.10;52.50;;;;;;4969178;28;20263;-49
2022/03/07 02:10:04;;;;;;;1.17;0.88;;;23.20;52.50;;;;;;4968897;28;20797;-45
2022/03/07 02:12:35;;;;;;;1.35;0.88;;;23.20;52.50;;;;;;4968814;28;20214;-50
2022/03/07 02:15:07;;;;;;;1.88;1.20;;;23.10;52.50;;;;;;4972660;28;20251;-50
2022/03/07 02:17:39;;;;;;;1.88;1.00;;;23.10;52.50;;;;;;4972953;28;20218;-49
2022/03/07 02:20:11;;;;;;;0.95;0.80;;;23.10;52.50;;;;;;4972264;28;20202;-52
2022/03/07 02:22:44;;;;;;;1.15;0.82;;;23.10;52.50;;;;;;4972629;28;20218;-50
2022/03/07 02:25:16;;;;;;;1.38;1.00;;;23.20;52.60;;;;;;4973532;28;20331;-46
2022/03/07 02:27:46;;;;;;;2.17;1.27;;;23.10;52.70;;;;;;4973193;28;20802;-49
2022/03/07 02:30:17;;;;;;;1.48;0.90;;;23.10;52.70;;;;;;4973645;28;20260;-49
2022/03/07 02:32:48;;;;;;;2.83;1.30;;;23.20;52.80;;;;;;4972478;28;20213;-52
2022/03/07 02:35:18;;;;;;;2.90;1.42;;;23.20;52.80;;;;;;4973026;28;20681;-45
2022/03/07 02:37:51;;;;;;;2.38;1.05;;;23.10;52.80;;;;;;4972914;28;20734;-49
2022/03/07 02:40:21;;;;;;;3.05;1.40;;;23.20;52.80;;;;;;4972867;28;20191;-49
2022/03/07 02:42:52;;;;;;;1.63;0.90;;;23.10;52.80;;;;;;4972494;28;20218;-49
2022/03/07 02:45:23;;;;;;;1.73;1.00;;;23.10;52.80;;;;;;4972110;28;20198;-53
2022/03/07 02:47:53;;;;;;;1.30;1.00;;;23.10;52.80;;;;;;4973046;28;20199;-46
2022/03/07 02:50:24;;;;;;;1.88;0.90;;;23.10;52.70;;;;;;4971620;28;20217;-51
2022/03/07 02:52:57;;;;;;;2.72;1.30;;;23.10;52.80;;;;;;4971803;28;20723;-51
2022/03/07 02:55:28;;;;;;;2.10;1.10;;;23.10;52.80;;;;;;4972172;28;20700;-51
2022/03/07 02:57:58;;;;;;;2.72;1.17;;;23.10;52.80;;;;;;4971714;28;20214;-46
2022/03/07 03:00:29;;;;;;;1.38;0.70;;;23.10;52.80;;;;;;4972098;28;20540;-49
2022/03/07 03:03:00;;;;;;;2.05;1.02;;;23.10;52.80;;;;;;4971727;28;20217;-49
2022/03/07 03:05:31;;;;;;;2.60;1.05;;;23.00;52.80;;;;;;4971928;28;20194;-47
2022/03/07 03:08:03;;;;;;;2.40;1.00;;;23.10;52.90;;;;;;4972369;28;20272;-46
2022/03/07 03:10:34;;;;;;;1.50;1.02;;;23.10;52.90;;;;;;4971941;28;20195;-48
2022/03/07 03:13:05;;;;;;;1.80;1.10;;;23.00;52.90;;;;;;4971979;28;20280;-48
2022/03/07 03:15:35;;;;;;;1.63;1.10;;;23.00;52.90;;;;;;4971709;28;20736;-48
2022/03/07 03:18:06;;;;;;;1.63;1.13;;;23.00;52.90;;;;;;4972160;28;20202;-47
2022/03/07 03:20:37;;;;;;;2.65;1.33;;;23.00;52.90;;;;;;4971583;28;20202;-49
2022/03/07 03:23:09;;;;;;;2.78;1.10;;;23.00;52.80;;;;;;4971416;28;20261;-47
2022/03/07 03:25:40;;;;;;;2.58;1.20;;;23.00;52.90;;;;;;4971722;28;20199;-45
2022/03/07 03:28:11;;;;;;;1.50;1.25;;;23.00;52.90;;;;;;4971852;28;20202;-51
2022/03/07 03:30:41;;;;;;;1.65;0.90;;;23.00;52.90;;;;;;4971350;28;20249;-50
2022/03/07 03:33:12;;;;;;;2.03;1.02;;;23.00;52.90;;;;;;4972119;28;20898;-52
2022/03/07 03:35:43;;;;;;;1.90;1.10;;;23.00;53.00;;;;;;4971569;28;20240;-52
2022/03/07 03:38:15;;;;;;;2.15;1.00;;;23.00;53.00;;;;;;4971293;28;20202;-47
2022/03/07 03:40:46;;;;;;;2.45;1.15;;;23.00;53.00;;;;;;4971510;28;20198;-51
2022/03/07 03:43:16;;;;;;;2.17;1.10;;;23.00;53.10;;;;;;4971694;28;20354;-50
2022/03/07 03:45:47;;;;;;;1.30;0.80;;;23.00;53.10;;;;;;4971477;28;20729;-46
2022/03/07 03:48:17;;;;;;;1.52;1.15;;;23.00;53.10;;;;;;4971842;28;20264;-47
2022/03/07 03:50:48;;;;;;;2.95;1.33;;;23.00;53.20;;;;;;4971306;28;20252;-50
2022/03/07 03:53:21;;;;;;;3.47;1.33;;;22.90;53.10;;;;;;4971701;28;20214;-50
2022/03/07 03:55:51;;;;;;;3.05;1.23;;;23.00;53.20;;;;;;4971288;28;20233;-46
2022/03/07 03:58:22;;;;;;;2.28;1.20;;;22.90;53.20;;;;;;4971491;28;20198;-46
2022/03/07 04:00:52;;;;;;;2.13;1.13;;;23.00;53.30;;;;;;4971166;28;20198;-50
2022/03/07 04:03:23;;;;;;;2.05;1.23;;;22.90;53.20;;;;;;4970991;28;20917;-46
2022/03/07 04:05:53;;;;;;;2.25;1.33;;;22.90;53.30;;;;;;4971468;28;20202;-49
2022/03/07 04:08:29;;;;;;;4.18;1.48;;;22.90;53.20;;;;;;4971609;28;20194;-49
2022/03/07 04:11:00;;;;;;;2.15;1.30;;;22.90;53.20;;;;;;4970552;28;20264;-50
2022/03/07 04:13:30;;;;;;;2.35;1.30;;;22.90;53.20;;;;;;4970319;28;20218;-49
2022/03/07 04:16:01;;;;;;;1.70;1.10;;;22.90;53.20;;;;;;4971214;28;20277;-48
2022/03/07 04:18:31;;;;;;;1.35;1.17;;;22.90;53.30;;;;;;4971526;28;20249;-51
2022/03/07 04:21:02;;;;;;;2.10;1.30;;;22.90;53.30;;;;;;4971122;28;20273;-46
2022/03/07 04:23:34;;;;;;;3.40;1.20;;;22.90;53.30;;;;;;4970906;28;20218;-51
2022/03/07 04:26:05;;;;;;;2.10;1.33;;;22.90;53.30;;;;;;4971369;28;20639;-46
2022/03/07 04:28:36;;;;;;;2.25;1.25;;;22.90;53.40;;;;;;4970787;28;20199;-47
2022/03/07 04:31:07;;;;;;;3.25;1.10;;;22.90;53.40;;;;;;4970708;28;20202;-51
2022/03/07 04:33:38;;;;;;;3.45;1.50;;;22.80;53.40;;;;;;4970563;28;20220;-50
2022/03/07 04:36:09;;;;;;;2.30;1.15;;;22.80;53.40;;;;;;4970053;28;20695;-45
2022/03/07 04:38:41;;;;;;;2.70;1.38;;;22.80;53.50;;;;;;4970944;28;20198;-47
2022/03/07 04:41:12;;;;;;;2.40;1.20;;;22.80;53.50;;;;;;4970352;28;20194;-50
2022/03/07 04:43:42;;;;;;;2.45;1.20;;;22.80;53.50;;;;;;4970576;28;20213;-51
2022/03/07 04:46:13;;;;;;;1.67;1.20;;;22.80;53.50;;;;;;4970430;28;20195;-49
2022/03/07 04:51:27;;;;;;;2.85;1.30;;;22.80;53.50;;;;;;5089628;23;20613;-61
2022/03/07 04:54:17;;;;;;;2.67;1.30;;;22.80;53.50;;;;;;4967891;28;20627;-58
2022/03/07 04:56:54;;;;;;;2.10;1.33;;;22.80;53.50;;;;;;4965074;28;20700;-58
2022/03/07 04:59:29;;;;;;;2.83;1.30;;;22.80;53.80;;;;;;4968966;28;20226;-61
2022/03/07 05:02:02;;;;;;;2.72;1.30;;;22.80;53.50;;;;;;4968446;28;20627;-59
2022/03/07 05:04:38;;;;;;;2.92;1.17;;;22.80;53.50;;;;;;4968266;28;20642;-64
2022/03/07 05:07:12;;;;;;;4.05;1.40;;;22.80;53.50;;;;;;4968065;28;20315;-58
2022/03/07 05:09:50;;;;;;;3.28;1.55;;;22.80;53.50;;;;;;4967602;28;20209;-63
2022/03/07 05:12:29;;;;;;;2.45;1.35;;;22.70;53.50;;;;;;4967067;28;20677;-66
2022/03/07 05:15:06;;;;;;;2.00;1.10;;;22.70;53.60;;;;;;4968180;28;20497;-62
2022/03/07 05:17:54;;;;;;;2.47;1.50;;;22.70;53.60;;;;;;4968188;28;20631;-63
2022/03/07 05:20:34;;;;;;;2.70;1.60;;;22.70;53.60;;;;;;4968052;28;20560;-65
2022/03/07 05:23:10;;;;;;;2.28;1.30;;;22.70;53.70;;;;;;4968760;28;20609;-60
2022/03/07 05:25:56;;;;;;;2.58;1.48;;;22.70;53.70;;;;;;4968796;28;20642;-58
2022/03/07 05:28:33;;;;;;;2.22;1.40;;;22.70;53.80;;;;;;4968274;28;20551;-60
2022/03/07 05:31:22;;;;;;;4.28;2.20;;;22.70;53.70;;;;;;4968284;28;20560;-58
2022/03/07 05:34:18;;;;;;;2.75;2.00;;;22.70;54.00;;;;;;4967614;28;20591;-62
2022/03/07 05:36:54;;;;;;;4.10;2.50;;;22.60;53.90;;;;;;4967544;28;20687;-62
2022/03/07 05:39:32;;;;;;;4.07;2.30;;;22.60;53.80;;;;;;4968999;28;20523;-60
2022/03/07 05:42:13;;;;;;;3.85;2.50;;;22.60;54.50;;;;;;4966593;28;20595;-64
2022/03/07 05:44:49;;;;;;;4.55;2.65;;;22.60;54.00;;;;;;4966000;28;20206;-60
2022/03/07 05:49:58;;;;;;;6.05;4.00;;;22.60;53.90;;;;;;5009428;23;20229;-49
2022/03/07 05:52:32;;;;;;;7.30;5.07;;;22.60;54.00;;;;;;4955520;28;20269;-49
2022/03/07 05:55:02;;;;;;;10.75;6.30;;;22.60;54.00;;;;;;4968510;28;20209;-48
2022/03/07 05:57:35;;;;;;;7.88;5.35;;;22.70;54.60;;;;;;4968364;28;20818;-49
2022/03/07 06:00:08;;;;;;;9.65;5.00;;;22.60;54.00;;;;;;4968574;28;20658;-49
2022/03/07 06:02:38;;;;;;;5.45;4.53;;;22.60;53.90;;;;;;4968262;28;20228;-48
2022/03/07 06:05:10;;;;;;;8.45;5.50;;;22.60;54.50;;;;;;4969064;28;20284;-52
2022/03/07 06:07:45;;;;;;;10.77;5.32;;;22.60;54.00;;;;;;4968189;28;20198;-51
2022/03/07 06:10:16;;;;;;;7.28;5.10;;;22.60;54.00;;;;;;4968340;28;20204;-48
2022/03/07 06:12:48;;;;;;;6.72;5.07;;;22.60;54.10;;;;;;4969458;28;20218;-50
2022/03/07 06:15:19;;;;;;;8.98;5.00;;;22.60;54.10;;;;;;4969641;28;20210;-50
2022/03/07 06:17:53;;;;;;;6.40;5.13;;;22.60;54.10;;;;;;4968987;28;20217;-50
2022/03/07 06:20:24;;;;;;;5.85;4.70;;;22.60;54.10;;;;;;4968572;28;20544;-48
2022/03/07 06:22:55;;;;;;;7.07;4.68;;;22.50;54.10;;;;;;4968393;28;20218;-49
2022/03/07 06:25:28;;;;;;;7.18;4.25;;;22.50;54.10;;;;;;4969240;28;20264;-48
2022/03/07 06:28:02;;;;;;;6.95;4.55;;;22.50;54.10;;;;;;4967902;28;20210;-49
2022/03/07 06:30:33;;;;;;;6.80;4.47;;;22.50;54.10;;;;;;4967837;28;20613;-50
2022/03/07 06:33:03;;;;;;;6.30;4.15;;;22.50;54.10;;;;;;4968635;28;20226;-52
2022/03/07 06:35:37;;;;;;;5.88;4.32;;;22.50;54.10;;;;;;4968550;28;20265;-47
2022/03/07 06:38:08;;;;;;;6.75;4.40;;;22.50;54.10;;;;;;4968441;28;20218;-51
2022/03/07 06:40:38;;;;;;;6.47;4.25;;;22.50;54.10;;;;;;4968424;28;20202;-50
2022/03/07 06:43:11;;;;;;;5.78;4.38;;;22.50;54.10;;;;;;4967244;28;20217;-50
2022/03/07 06:45:42;;;;;;;5.25;3.95;;;22.50;54.10;;;;;;4967414;28;20737;-50
2022/03/07 06:48:15;;;;;;;6.03;4.22;;;22.50;54.10;;;;;;4969144;28;20206;-49
2022/03/07 06:50:45;;;;;;;5.90;3.90;;;22.50;54.10;;;;;;4968675;28;20198;-47
2022/03/07 06:53:16;;;;;;;6.60;4.10;;;22.40;54.10;;;;;;4969671;28;20276;-46
2022/03/07 06:55:46;;;;;;;6.03;3.83;;;22.40;54.10;;;;;;4968966;28;20202;-49
2022/03/07 06:58:19;;;;;;;5.60;4.07;;;22.40;54.10;;;;;;4968883;28;20252;-50
2022/03/07 07:00:50;;;;;;;6.80;3.95;;;22.40;54.20;;;;;;4972453;28;20199;-49
2022/03/07 07:03:20;;;;;;;5.40;3.85;;;22.40;54.20;;;;;;4972214;28;20222;-54
2022/03/07 07:05:56;;;;;;;7.43;4.05;;;22.40;54.20;;;;;;4972720;28;20237;-47
2022/03/07 07:08:33;;;;;;;5.60;4.15;;;22.40;54.20;;;;;;4974003;28;20202;-46
2022/03/07 07:11:04;;;;;;;5.32;4.03;;;22.30;54.30;;;;;;4967684;28;20194;-47
2022/03/07 07:13:36;;;;;;;6.13;3.90;;;22.30;54.20;;;;;;4954461;28;20223;-50
2022/03/07 07:16:07;;;;;;;5.40;4.18;;;22.30;54.20;;;;;;4959139;28;20202;-47
2022/03/07 07:18:37;;;;;;;5.63;3.95;;;22.30;54.20;;;;;;4972873;28;20269;-48
2022/03/07 07:21:08;;;;;;;7.55;4.35;;;22.30;54.30;;;;;;4972684;28;20710;-48
2022/03/07 07:23:39;;;;;;;6.82;4.00;;;22.30;54.30;;;;;;4973056;28;20214;-46
2022/03/07 07:26:10;;;;;;;6.05;4.20;;;22.30;54.30;;;;;;4973072;28;20219;-48
2022/03/07 07:28:43;;;;;;;6.03;3.90;;;22.30;54.30;;;;;;4972972;28;20202;-47
2022/03/07 07:31:13;;;;;;;8.13;5.22;;;22.30;54.40;;;;;;4973072;28;20827;-60
2022/03/07 07:33:44;;;;;;;14.40;10.77;;;22.30;55.50;;;;;;4973545;28;20292;-60
2022/03/07 07:36:14;;;;;;;12.02;7.90;;;22.20;55.60;;;;;;4972760;28;20194;-48
2022/03/07 07:38:45;;;;;;;11.80;7.65;;;22.10;55.80;;;;;;4972810;28;20257;-47
2022/03/07 07:41:15;;;;;;;9.38;6.25;;;22.00;55.90;;;;;;4972371;28;20655;-52
2022/03/07 07:43:49;;;;;;;9.75;6.45;;;22.00;55.90;;;;;;4972723;28;20288;-50
2022/03/07 07:46:21;;;;;;;8.55;6.18;;;22.00;55.90;;;;;;4972625;28;20198;-48
2022/03/07 07:48:51;;;;;;;8.02;5.93;;;22.00;55.90;;;;;;4973703;28;20591;-52
2022/03/07 07:51:22;;;;;;;6.95;5.43;;;21.90;56.00;;;;;;4972109;28;20194;-54
2022/03/07 07:53:53;;;;;;;7.97;5.97;;;21.90;56.00;;;;;;4972581;28;20222;-50
2022/03/07 07:56:24;;;;;;;7.30;5.70;;;21.90;56.00;;;;;;4972771;28;20199;-50
2022/03/07 07:58:56;;;;;;;7.13;5.10;;;21.90;56.00;;;;;;4972866;28;20206;-53
2022/03/07 08:01:28;;;;;;;7.28;5.32;;;21.90;56.00;;;;;;4972870;28;20249;-54
2022/03/07 08:03:59;;;;;;;7.88;5.22;;;21.90;55.90;;;;;;4972904;28;20621;-47
2022/03/07 08:06:29;;;;;;;5.90;4.72;;;21.90;55.90;;;;;;4972054;28;20662;-49
2022/03/07 08:09:00;;;;;;;6.57;4.75;;;21.90;55.90;;;;;;4952810;28;20265;-49
2022/03/07 08:11:30;;;;;;;7.13;4.75;;;21.90;56.00;;;;;;4950647;28;20194;-51
2022/03/07 08:14:03;;;;;;;6.40;4.70;;;21.80;55.90;;;;;;4959159;28;20222;-47
2022/03/07 08:16:33;;;;;;;7.20;4.85;;;21.80;55.80;;;;;;4970080;28;20209;-49
2022/03/07 08:19:04;;;;;;;5.43;4.55;;;21.90;55.90;;;;;;4970274;28;20210;-53
2022/03/07 08:21:34;;;;;;;6.07;4.45;;;21.90;55.80;;;;;;4966085;28;20202;-50
2022/03/07 08:24:05;;;;;;;5.45;4.38;;;21.90;55.80;;;;;;4968709;28;20672;-50
2022/03/07 08:26:36;;;;;;;7.68;4.70;;;21.80;55.70;;;;;;4968487;28;20191;-49
2022/03/07 08:29:08;;;;;;;5.35;3.88;;;21.80;55.70;;;;;;4969024;28;20202;-49
2022/03/07 08:31:39;;;;;;;6.40;4.20;;;21.90;55.70;;;;;;4968228;28;20221;-49
2022/03/07 08:34:09;;;;;;;7.07;4.55;;;21.90;55.60;;;;;;4967271;28;20354;-49
2022/03/07 08:36:40;;;;;;;5.22;4.28;;;21.80;55.60;;;;;;4967927;28;20202;-46
2022/03/07 08:39:11;;;;;;;6.13;4.32;;;21.80;55.60;;;;;;4967869;28;20202;-49
2022/03/07 08:41:41;;;;;;;4.75;4.25;;;21.80;55.50;;;;;;4968597;28;20292;-51
2022/03/07 08:44:14;;;;;;;4.97;4.18;;;21.80;55.50;;;;;;4965112;28;20604;-48
2022/03/07 08:46:44;;;;;;;7.13;4.45;;;21.80;55.50;;;;;;4968030;28;20249;-51
2022/03/07 08:49:15;;;;;;;5.40;4.07;;;21.80;55.50;;;;;;4967473;28;20205;-50
2022/03/07 08:51:46;;;;;;;5.22;3.70;;;21.80;55.50;;;;;;4969199;23;21733;-62
2022/03/07 08:54:17;;;;;;;6.70;4.90;;;21.80;55.40;;;;;;4967577;28;20209;-58
2022/03/07 08:56:48;;;;;;;4.65;4.25;;;21.80;55.50;;;;;;4966764;28;20202;-62
2022/03/07 08:59:20;;;;;;;7.05;4.57;;;21.80;55.40;;;;;;4967765;28;20245;-57
2022/03/07 09:01:51;;;;;;;5.35;4.30;;;21.80;55.50;;;;;;4968013;28;20205;-58
2022/03/07 09:04:22;;;;;;;4.80;4.30;;;21.80;55.50;;;;;;4966586;28;20209;-64
2022/03/07 09:06:52;;;;;;;5.15;4.28;;;21.80;55.40;;;;;;4966548;28;20198;-58
2022/03/07 09:09:23;;;;;;;5.13;4.20;;;21.70;55.40;;;;;;4966824;28;20198;-63
2022/03/07 09:11:53;;;;;;;5.10;4.03;;;21.80;55.40;;;;;;4965458;28;20206;-62
2022/03/07 09:14:26;;;;;;;4.80;3.90;;;21.80;55.40;;;;;;4967187;28;20253;-65
2022/03/07 09:16:57;;;;;;;4.55;3.97;;;21.70;55.30;;;;;;4967181;28;20261;-60
2022/03/07 09:19:27;;;;;;;4.43;3.92;;;21.80;55.30;;;;;;4967655;28;20249;-63
2022/03/07 09:21:58;;;;;;;4.68;3.75;;;21.70;55.30;;;;;;4967064;28;20282;-64
2022/03/07 09:24:28;;;;;;;5.07;3.92;;;21.70;55.30;;;;;;4969564;28;20206;-60
2022/03/07 09:26:59;;;;;;;5.38;4.18;;;21.70;55.20;;;;;;4969504;28;20605;-62
2022/03/07 09:29:32;;;;;;;5.00;3.85;;;21.70;55.30;;;;;;4969235;28;20194;-59
2022/03/07 09:32:03;;;;;;;3.70;3.35;;;21.70;55.20;;;;;;4969219;28;20207;-65
2022/03/07 09:34:33;;;;;;;4.18;3.78;;;21.70;55.20;;;;;;4969431;28;20206;-64
2022/03/07 09:37:06;;;;;;;4.97;4.20;;;21.70;55.20;;;;;;4969681;28;20218;-63
2022/03/07 09:39:37;;;;;;;3.90;3.55;;;21.70;55.20;;;;;;4969792;28;20198;-61
2022/03/07 09:42:09;;;;;;;4.38;3.47;;;21.70;55.30;;;;;;4967239;28;20218;-64
2022/03/07 09:44:41;;;;;;;4.65;3.78;;;21.70;55.30;;;;;;4970052;28;20245;-61
2022/03/07 09:47:12;;;;;;;4.20;3.50;;;21.70;55.30;;;;;;4970171;28;20237;-63
2022/03/07 09:49:43;;;;;;;4.07;3.25;;;21.60;55.20;;;;;;4968700;28;20712;-59
2022/03/07 09:54:53;;;;;;;4.25;3.40;;;21.70;55.30;;;;;;5060671;23;20355;-58
2022/03/07 09:57:25;;;;;;;6.68;3.30;;;21.60;55.20;;;;;;4948926;28;20226;-59
2022/03/07 09:59:57;;;;;;;3.53;3.22;;;21.60;55.20;;;;;;4948772;29;20191;-60
2022/03/07 10:02:28;;;;;;;3.47;3.17;;;21.60;55.20;;;;;;4955809;28;20218;-58
2022/03/07 10:05:03;;;;;;;6.13;3.13;;;21.60;55.20;;;;;;4968822;28;20742;-59
2022/03/07 10:07:44;;;;;;;4.45;3.60;;;21.60;55.20;;;;;;4969074;28;20259;-60
2022/03/07 10:10:15;;;;;;;4.35;3.33;;;21.60;55.20;;;;;;4969216;28;20194;-59
2022/03/07 10:12:49;;;;;;;3.50;3.20;;;21.60;55.10;;;;;;4968666;28;20222;-60
2022/03/07 10:15:23;;;;;;;4.00;3.42;;;21.60;55.20;;;;;;4970015;28;20201;-61
2022/03/07 10:17:55;;;;;;;5.13;3.45;;;21.60;55.20;;;;;;4968770;28;20272;-59
2022/03/07 10:20:26;;;;;;;3.67;3.10;;;21.60;55.10;;;;;;4969350;28;20198;-58
2022/03/07 10:22:58;;;;;;;3.60;2.97;;;21.60;55.10;;;;;;4969366;28;20225;-58
2022/03/07 10:25:29;;;;;;;4.05;3.25;;;21.60;55.20;;;;;;4969633;28;20355;-61
2022/03/07 10:28:02;;;;;;;3.83;3.17;;;21.60;55.10;;;;;;4968549;28;20190;-58
2022/03/07 10:30:35;;;;;;;3.78;3.38;;;21.60;55.20;;;;;;4969442;28;20273;-58
2022/03/07 10:33:08;;;;;;;4.15;3.00;;;21.60;55.10;;;;;;4969222;28;20982;-60
2022/03/07 10:35:40;;;;;;;3.63;2.88;;;21.50;55.10;;;;;;4975268;28;20202;-58
2022/03/07 10:38:13;;;;;;;3.30;3.00;;;21.50;55.10;;;;;;4975925;28;20230;-56
2022/03/07 10:40:47;;;;;;;4.10;2.83;;;21.50;55.10;;;;;;4974164;28;20257;-58
2022/03/07 10:43:17;;;;;;;3.35;3.00;;;21.50;55.10;;;;;;4974538;28;20246;-57
2022/03/07 10:45:52;;;;;;;3.47;3.00;;;21.50;55.10;;;;;;4974781;28;20265;-52
2022/03/07 10:48:23;;;;;;;3.85;3.05;;;21.50;55.10;;;;;;4974651;28;20604;-52
2022/03/07 10:50:55;;;;;;;3.30;2.80;;;21.50;55.70;;;;;;4974997;28;20202;-58
2022/03/07 10:53:26;;;;;;;3.70;2.70;;;21.50;55.10;;;;;;4974467;28;20226;-58
2022/03/07 10:55:58;;;;;;;3.20;2.90;;;21.50;55.10;;;;;;4974299;28;20193;-57
2022/03/07 10:58:30;;;;;;;2.70;2.50;;;21.50;55.00;;;;;;4974313;28;20230;-56
2022/03/07 11:01:04;;;;;;;3.03;2.72;;;21.50;55.10;;;;;;4968069;28;20201;-54
2022/03/07 11:03:39;;;;;;;3.05;2.67;;;21.50;55.00;;;;;;4957407;28;20219;-56
2022/03/07 11:06:10;;;;;;;3.08;2.78;;;21.40;55.00;;;;;;4973085;28;20197;-56
2022/03/07 11:08:43;;;;;;;2.65;2.25;;;21.40;55.00;;;;;;4967471;28;20217;-56
2022/03/07 11:11:14;;;;;;;3.50;2.60;;;21.40;55.00;;;;;;4963104;28;20655;-56
2022/03/07 11:13:45;;;;;;;2.53;2.33;;;21.40;55.00;;;;;;4963047;28;20250;-53
2022/03/07 11:16:18;;;;;;;2.92;2.40;;;21.40;55.00;;;;;;4963375;28;20222;-52
2022/03/07 11:18:54;;;;;;;3.45;2.53;;;21.40;55.00;;;;;;4963085;28;20304;-53
2022/03/07 11:21:26;;;;;;;2.67;2.38;;;21.40;55.00;;;;;;4961655;28;20253;-48
2022/03/07 11:23:56;;;;;;;3.13;2.72;;;21.40;55.00;;;;;;4961633;28;20211;-52
2022/03/07 11:26:27;;;;;;;2.90;2.65;;;21.40;55.00;;;;;;4962698;28;20655;-58
2022/03/07 11:28:59;;;;;;;3.13;2.45;;;21.40;55.00;;;;;;4963359;28;20194;-52
2022/03/07 11:31:33;;;;;;;2.95;2.75;;;21.30;55.00;;;;;;4963259;28;20274;-56
2022/03/07 11:34:09;;;;;;;2.92;2.30;;;21.30;55.00;;;;;;4964250;28;20276;-52
2022/03/07 11:36:43;;;;;;;3.35;2.55;;;21.30;55.00;;;;;;4962961;28;20189;-55
2022/03/07 11:39:14;;;;;;;3.22;2.67;;;21.30;55.00;;;;;;4963666;28;20629;-57
2022/03/07 11:41:45;;;;;;;2.92;2.65;;;21.30;55.00;;;;;;4962760;28;20194;-56
2022/03/07 11:44:16;;;;;;;2.58;2.00;;;21.30;55.00;;;;;;4961152;28;20262;-57
2022/03/07 11:46:51;;;;;;;2.85;2.40;;;21.30;55.00;;;;;;4960813;28;20194;-55
2022/03/07 11:49:28;;;;;;;2.63;2.40;;;21.30;55.00;;;;;;4962533;28;20206;-56
2022/03/07 11:52:01;;;;;;;2.50;2.30;;;21.30;55.00;;;;;;4967157;23;20874;-54
2022/03/07 11:54:32;;;;;;;2.85;2.40;;;21.30;54.90;;;;;;4952857;28;20199;-53
2022/03/07 11:57:10;;;;;;;2.95;2.40;;;21.20;54.90;;;;;;4950674;29;20254;-56
2022/03/07 11:59:41;;;;;;;2.28;2.08;;;21.20;54.90;;;;;;4950265;29;20214;-51
2022/03/07 12:02:13;;;;;;;2.90;2.60;;;21.20;54.90;;;;;;4952638;28;20236;-48
2022/03/07 12:04:46;;;;;;;3.90;2.67;;;21.30;55.00;;;;;;4953702;28;20258;-50
2022/03/07 12:07:28;;;;;;;2.42;2.20;;;21.30;55.00;;;;;;4953641;28;20195;-49
2022/03/07 12:10:09;;;;;;;3.00;2.33;;;21.20;55.00;;;;;;4953249;28;20249;-53
2022/03/07 12:12:39;;;;;;;3.08;2.60;;;21.20;54.90;;;;;;4953438;28;20793;-52
2022/03/07 12:15:15;;;;;;;2.90;2.10;;;21.20;55.00;;;;;;4937783;28;20662;-50
2022/03/07 12:17:56;;;;;;;3.08;2.22;;;21.20;55.00;;;;;;4951965;29;20654;-51
2022/03/07 12:20:26;;;;;;;2.53;2.30;;;21.20;55.00;;;;;;4952932;28;20199;-48
2022/03/07 12:22:58;;;;;;;2.85;2.30;;;21.20;55.00;;;;;;4953024;28;20223;-52
2022/03/07 12:25:29;;;;;;;2.53;2.33;;;21.20;55.10;;;;;;4952946;28;20199;-52
2022/03/07 12:28:03;;;;;;;3.47;2.50;;;21.20;55.00;;;;;;4953419;28;20203;-51
2022/03/07 12:30:34;;;;;;;2.33;2.13;;;21.20;55.00;;;;;;4953480;28;20217;-51
2022/03/07 12:33:11;;;;;;;2.33;2.10;;;21.20;55.00;;;;;;4953050;28;20258;-53
2022/03/07 12:35:41;;;;;;;2.15;1.98;;;21.20;54.90;;;;;;4952791;28;20202;-51
2022/03/07 12:38:12;;;;;;;2.58;1.98;;;21.20;55.00;;;;;;4953362;28;20815;-50
2022/03/07 12:40:43;;;;;;;2.50;2.30;;;21.10;54.90;;;;;;4953359;28;20199;-52
2022/03/07 12:43:13;;;;;;;2.25;2.05;;;21.10;54.90;;;;;;4952950;28;20226;-50
2022/03/07 12:45:55;;;;;;;2.30;2.05;;;21.20;54.90;;;;;;4952620;28;20211;-51
2022/03/07 12:48:38;;;;;;;2.72;2.08;;;21.20;54.90;;;;;;4952352;28;20206;-50
2022/03/07 12:51:10;;;;;;;2.90;1.92;;;21.10;54.90;;;;;;4951941;28;20202;-50
2022/03/07 12:53:49;;;;;;;2.08;1.77;;;21.10;54.90;;;;;;4952324;28;20282;-52
2022/03/07 12:56:20;;;;;;;1.88;1.67;;;21.10;54.90;;;;;;4952318;28;20640;-53
2022/03/07 12:58:54;;;;;;;3.05;2.00;;;21.10;55.00;;;;;;4952513;28;20230;-51
2022/03/07 13:01:25;;;;;;;2.17;1.90;;;21.10;54.90;;;;;;4952588;28;20578;-45
2022/03/07 13:03:59;;;;;;;2.00;1.80;;;21.10;54.90;;;;;;4936712;29;20219;-52
2022/03/07 13:06:40;;;;;;;3.00;2.08;;;21.10;55.50;;;;;;4952550;28;20647;-49
2022/03/07 13:09:10;;;;;;;1.98;1.77;;;21.10;54.90;;;;;;4952486;28;20199;-52
2022/03/07 13:11:42;;;;;;;2.75;2.03;;;21.00;54.90;;;;;;4952287;28;20199;-46
2022/03/07 13:14:20;;;;;;;2.70;2.10;;;21.00;54.90;;;;;;4952758;28;20199;-54
2022/03/07 13:16:51;;;;;;;3.03;2.00;;;21.10;55.00;;;;;;4952660;28;20687;-50
2022/03/07 13:19:26;;;;;;;2.15;1.60;;;21.00;54.90;;;;;;4952217;28;20770;-53
2022/03/07 13:21:57;;;;;;;2.63;2.17;;;21.00;54.90;;;;;;4952339;28;20199;-53
2022/03/07 13:24:28;;;;;;;2.78;2.00;;;21.00;54.80;;;;;;4952511;28;20611;-52
2022/03/07 13:27:00;;;;;;;2.17;1.67;;;21.00;54.80;;;;;;4952680;28;20665;-51
2022/03/07 13:29:32;;;;;;;2.35;1.90;;;21.00;54.80;;;;;;4952262;28;20254;-50
2022/03/07 13:32:04;;;;;;;1.77;1.60;;;21.00;54.80;;;;;;4952187;28;20672;-49
2022/03/07 13:34:46;;;;;;;1.95;1.80;;;21.00;54.90;;;;;;4951720;28;20257;-50
2022/03/07 13:37:18;;;;;;;2.53;1.85;;;21.00;54.80;;;;;;4932432;29;20195;-54
2022/03/07 13:40:02;;;;;;;2.05;1.90;;;21.00;54.80;;;;;;4932643;29;20227;-52
2022/03/07 13:42:39;;;;;;;2.08;1.50;;;21.00;54.90;;;;;;4932810;29;20282;-54
2022/03/07 13:45:12;;;;;;;1.88;1.60;;;21.00;54.80;;;;;;4933185;29;20228;-49
2022/03/07 13:47:44;;;;;;;1.92;1.70;;;21.00;54.90;;;;;;4950252;29;20203;-48
2022/03/07 13:50:21;;;;;;;1.98;1.73;;;20.90;54.80;;;;;;4951025;28;20663;-48
2022/03/07 13:52:53;;;;;;;1.80;1.70;;;20.90;54.80;;;;;;4951603;28;20229;-51
2022/03/07 13:55:26;;;;;;;2.30;2.10;;;20.90;54.80;;;;;;4952386;28;20226;-51
2022/03/07 13:57:57;;;;;;;2.17;1.70;;;20.90;54.80;;;;;;4951655;28;20199;-49
2022/03/07 14:00:29;;;;;;;2.13;1.80;;;20.90;54.80;;;;;;4951095;28;20269;-54
2022/03/07 14:03:02;;;;;;;2.38;1.70;;;20.90;54.80;;;;;;4951639;28;20269;-50
2022/03/07 14:05:46;;;;;;;2.28;1.70;;;20.90;54.90;;;;;;4951371;28;20198;-50
2022/03/07 14:08:17;;;;;;;1.92;1.67;;;20.90;54.90;;;;;;4951167;28;20206;-49
2022/03/07 14:10:57;;;;;;;1.70;1.60;;;20.90;54.90;;;;;;4950383;28;20203;-52
2022/03/07 14:13:40;;;;;;;2.35;1.90;;;20.90;54.90;;;;;;4932124;29;20607;-50
2022/03/07 14:16:11;;;;;;;1.80;1.70;;;20.90;54.90;;;;;;4937310;29;20722;-50
2022/03/07 14:18:41;;;;;;;2.30;1.40;;;20.80;54.80;;;;;;4951518;28;20226;-54